Rapid City, Canada
Current Conditions -  °F | °C
As of 1:00 PM on Tuesday 21 Oct 2014 (Local Time) from CYBR Reporting Station
Clear Clear  
Wind Chill: 63°   Ceiling: Unl
Heat Index: 63°   Visibility: 15mi
Dew Point: 41°   Wind: 18mph
Humidity: 45%   Direction: 160°SSE
Pressure: 29.79"   Gusts: NA
Location:  50.12°N, 100.03°W
Report Text: CYBR 211800Z 16016KT 15SM SKC 17/05 A2979 RMK SLP098 DENSITY ALT 2000FT
Loading
Personal Weather Stations






























Interactive Weather Map
Tropical Storm Tracking
New forecast layout! Learn more

10-Day Weather Forecast

Advertisements
Track Severe Weather on mobile